Time;durP1;ratioP1;P1;durP2;ratioP2;P2;SDS_P1;SDS_P2;PMS_P1;PMS_P2;Temp;Humidity;BMP_temperature;BMP_pressure;BME280_temperature;BME280_humidity;BME280_pressure;Samples;Min_cycle;Max_cycle;Signal;HPM_P1;HPM_P2
2023/07/04 00:01:07;;;;;;;2.80;2.30;;;;;16.90;96183.00;;;;8252153;28;20222;-65
2023/07/04 00:05:13;;;;;;;4.43;2.13;;;;;17.00;96191.00;;;;8283067;28;20226;-64
2023/07/04 00:09:17;;;;;;;4.75;2.20;;;;;17.20;96183.00;;;;8233820;28;20195;-64
2023/07/04 00:13:24;;;;;;;4.30;2.08;;;;;17.30;96178.00;;;;8254293;28;20919;-64
2023/07/04 00:17:30;;;;;;;3.05;2.20;;;;;17.30;96175.00;;;;8257984;28;20309;-65
2023/07/04 00:21:42;;;;;;;3.05;2.15;;;;;17.20;96172.00;;;;8263883;28;20675;-65
2023/07/04 00:25:46;;;;;;;2.95;2.10;;;;;17.00;96165.00;;;;8251490;28;20317;-65
2023/07/04 00:29:51;;;;;;;2.85;2.00;;;;;16.80;96165.00;;;;8257385;28;20697;-65
2023/07/04 00:33:54;;;;;;;4.38;1.90;;;;;16.70;96163.00;;;;8255627;28;20195;-65
2023/07/04 00:37:58;;;;;;;2.40;2.17;;;;;16.60;96161.00;;;;8268293;28;20215;-65
2023/07/04 00:42:08;;;;;;;2.70;2.15;;;;;16.60;96163.00;;;;8252701;28;20297;-65
2023/07/04 00:46:14;;;;;;;4.60;2.30;;;;;16.60;96171.00;;;;8255680;28;20783;-65
2023/07/04 00:50:23;;;;;;;4.97;2.42;;;;;16.60;96179.00;;;;8247763;28;20206;-65
2023/07/04 00:54:30;;;;;;;8.55;2.88;;;;;16.70;96190.00;;;;8266757;28;20290;-65
2023/07/04 00:58:37;;;;;;;4.38;2.15;;;;;16.80;96191.00;;;;8260248;28;20265;-65
2023/07/04 01:02:46;;;;;;;2.47;2.20;;;;;16.80;96197.00;;;;8264205;28;20263;-65
2023/07/04 01:06:56;;;;;;;4.90;2.60;;;;;16.70;96209.00;;;;8254885;28;20289;-66
2023/07/04 01:11:04;;;;;;;6.40;2.20;;;;;16.40;96202.00;;;;8259945;28;20210;-71
2023/07/04 01:15:11;;;;;;;4.70;2.58;;;;;16.20;96195.00;;;;8254999;28;20205;-69
2023/07/04 01:19:26;;;;;;;11.23;3.13;;;;;16.00;96191.00;;;;8256879;28;20195;-71
2023/07/04 01:23:47;;;;;;;5.10;2.40;;;;;15.90;96204.00;;;;8258402;28;20325;-71
2023/07/04 01:27:59;;;;;;;6.40;3.03;;;;;15.80;96200.00;;;;8256965;28;20232;-69
2023/07/04 01:32:04;;;;;;;6.60;2.72;;;;;15.80;96202.00;;;;8271643;28;20258;-70
2023/07/04 01:36:11;;;;;;;9.35;2.97;;;;;15.70;96198.00;;;;8267984;28;20205;-70
2023/07/04 01:40:16;;;;;;;3.28;2.40;;;;;15.80;96186.00;;;;8260003;28;20210;-70
2023/07/04 01:44:24;;;;;;;4.00;2.90;;;;;15.80;96187.00;;;;8267045;28;20237;-70
2023/07/04 01:48:29;;;;;;;7.53;2.60;;;;;15.80;96194.00;;;;8267900;28;21953;-68
2023/07/04 01:52:32;;;;;;;10.02;2.78;;;;;15.80;96198.00;;;;8262497;28;20213;-68
2023/07/04 01:56:38;;;;;;;4.28;2.80;;;;;15.80;96202.00;;;;8273257;28;20297;-68
2023/07/04 02:00:43;;;;;;;7.35;2.75;;;;;15.90;96205.00;;;;8238238;28;20199;-68
2023/07/04 02:04:48;;;;;;;14.50;3.22;;;;;16.00;96209.00;;;;8274964;28;20234;-68
2023/07/04 02:08:53;;;;;;;6.72;2.47;;;;;16.00;96219.00;;;;8268353;28;20210;-68
2023/07/04 02:12:57;;;;;;;9.65;3.20;;;;;16.10;96220.00;;;;8265908;28;20297;-68
2023/07/04 02:17:07;;;;;;;7.30;3.42;;;;;16.10;96219.00;;;;8276840;28;20202;-68
2023/07/04 02:21:11;;;;;;;4.47;3.03;;;;;16.20;96217.00;;;;8267237;28;20243;-67
2023/07/04 02:25:14;;;;;;;6.53;2.90;;;;;16.20;96222.00;;;;8268382;28;20256;-68
2023/07/04 02:29:17;;;;;;;4.57;2.80;;;;;16.20;96230.00;;;;8264708;28;20915;-68
2023/07/04 02:33:24;;;;;;;5.30;2.85;;;;;16.30;96230.00;;;;8254865;28;20301;-67
2023/07/04 02:37:27;;;;;;;5.07;2.92;;;;;16.30;96228.00;;;;8266655;28;20201;-68
2023/07/04 02:41:30;;;;;;;7.28;2.70;;;;;16.30;96221.00;;;;8265465;28;20213;-68
2023/07/04 02:45:34;;;;;;;3.75;2.83;;;;;16.40;96219.00;;;;8260396;28;20285;-69
2023/07/04 02:49:41;;;;;;;11.63;2.60;;;;;16.40;96215.00;;;;8270637;28;20298;-67
2023/07/04 02:53:44;;;;;;;3.72;2.85;;;;;16.40;96213.00;;;;8264608;28;20659;-68
2023/07/04 02:57:48;;;;;;;4.30;2.85;;;;;16.40;96207.00;;;;8260809;28;20199;-67
2023/07/04 03:01:52;;;;;;;8.55;3.03;;;;;16.40;96218.00;;;;8298194;23;20240;-67
2023/07/04 03:06:04;;;;;;;5.15;2.95;;;;;16.40;96211.00;;;;8317717;28;20288;-67
2023/07/04 03:10:08;;;;;;;3.88;2.60;;;;;16.40;96219.00;;;;8324340;28;20189;-68
2023/07/04 03:14:11;;;;;;;5.43;2.67;;;;;16.40;96222.00;;;;8317115;28;20240;-67
2023/07/04 03:18:14;;;;;;;5.70;3.35;;;;;16.50;96217.00;;;;8318248;28;20285;-67
2023/07/04 03:22:20;;;;;;;5.13;2.92;;;;;16.50;96216.00;;;;8299660;28;20229;-67
2023/07/04 03:26:25;;;;;;;9.35;3.25;;;;;16.50;96227.00;;;;8316151;28;20741;-69
2023/07/04 03:30:28;;;;;;;5.35;2.70;;;;;16.50;96222.00;;;;8316235;28;20284;-69
2023/07/04 03:34:31;;;;;;;7.70;2.83;;;;;16.50;96223.00;;;;8317642;28;20202;-66
2023/07/04 03:38:37;;;;;;;9.35;3.20;;;;;16.50;96231.00;;;;8318546;28;20673;-66
2023/07/04 03:42:41;;;;;;;4.35;2.90;;;;;16.40;96234.00;;;;8299538;28;20264;-65
2023/07/04 03:46:46;;;;;;;10.13;3.22;;;;;16.40;96235.00;;;;8316493;28;20635;-63
2023/07/04 03:50:50;;;;;;;5.93;3.20;;;;;16.40;96231.00;;;;8319143;28;20258;-64
2023/07/04 03:54:57;;;;;;;3.45;2.60;;;;;16.50;96231.00;;;;8318126;28;20209;-63
2023/07/04 03:59:03;;;;;;;3.33;2.58;;;;;16.50;96221.00;;;;8319269;28;20208;-63
2023/07/04 04:03:10;;;;;;;5.35;2.65;;;;;16.50;96228.00;;;;8297470;28;20324;-64
2023/07/04 04:07:14;;;;;;;4.03;2.78;;;;;16.50;96212.00;;;;8316316;28;20202;-62
2023/07/04 04:11:21;;;;;;;5.22;2.92;;;;;16.50;96209.00;;;;8317647;28;20197;-64
2023/07/04 04:15:27;;;;;;;6.22;3.10;;;;;16.80;96212.00;;;;8317567;28;20288;-67
2023/07/04 04:19:30;;;;;;;5.72;3.30;;;;;17.10;96214.00;;;;8314476;28;20197;-65
2023/07/04 04:23:34;;;;;;;8.20;3.17;;;;;17.50;96217.00;;;;8318137;28;20304;-67
2023/07/04 04:27:41;;;;;;;5.32;3.17;;;;;17.80;96232.00;;;;8316265;28;20216;-63
2023/07/04 04:31:48;;;;;;;5.15;2.80;;;;;18.20;96236.00;;;;8318647;28;20663;-64
2023/07/04 04:35:52;;;;;;;6.05;3.00;;;;;18.60;96242.00;;;;8317785;28;20312;-64
2023/07/04 04:39:55;;;;;;;10.45;3.13;;;;;18.80;96245.00;;;;8315055;28;20201;-65
2023/07/04 04:44:04;;;;;;;4.28;2.33;;;;;19.00;96253.00;;;;8317470;28;20726;-69
2023/07/04 04:48:07;;;;;;;5.32;2.63;;;;;19.30;96257.00;;;;8314591;28;20650;-67
2023/07/04 04:52:13;;;;;;;5.90;2.92;;;;;19.70;96252.00;;;;8322203;28;20197;-66
2023/07/04 04:56:18;;;;;;;5.80;2.20;;;;;20.00;96254.00;;;;8317598;28;20605;-67
2023/07/04 05:00:24;;;;;;;5.05;2.70;;;;;20.20;96253.00;;;;8315615;28;20651;-68
2023/07/04 05:04:27;;;;;;;3.78;3.00;;;;;20.20;96256.00;;;;8309113;28;20232;-66
2023/07/04 05:08:30;;;;;;;5.00;2.50;;;;;20.20;96261.00;;;;8303936;28;20233;-64
2023/07/04 05:12:34;;;;;;;6.45;2.97;;;;;20.30;96264.00;;;;8313406;28;20207;-68
2023/07/04 05:16:44;;;;;;;7.97;2.72;;;;;20.50;96273.00;;;;8316405;28;20209;-65
2023/07/04 05:20:49;;;;;;;7.03;3.33;;;;;20.60;96269.00;;;;8317365;28;20200;-64
2023/07/04 05:24:52;;;;;;;5.13;2.50;;;;;20.80;96273.00;;;;8312643;28;20421;-64
2023/07/04 05:29:02;;;;;;;6.60;2.85;;;;;21.30;96273.00;;;;8313375;28;20699;-65
2023/07/04 05:33:09;;;;;;;4.03;2.80;;;;;21.30;96273.00;;;;8311736;28;20635;-65
2023/07/04 05:37:12;;;;;;;5.15;2.72;;;;;21.20;96287.00;;;;8311632;28;20963;-62
2023/07/04 05:41:17;;;;;;;5.45;2.47;;;;;21.20;96287.00;;;;8315384;28;20574;-67
2023/07/04 05:45:23;;;;;;;6.38;2.42;;;;;21.00;96297.00;;;;8314007;28;20229;-65
2023/07/04 05:49:28;;;;;;;7.35;2.70;;;;;20.70;96288.00;;;;8316309;28;20217;-64
2023/07/04 05:53:33;;;;;;;5.40;2.60;;;;;20.40;96292.00;;;;8312482;28;20645;-64
2023/07/04 05:57:36;;;;;;;7.00;2.92;;;;;21.00;96279.00;;;;8314228;28;20216;-66
2023/07/04 06:01:44;;;;;;;4.55;2.53;;;;;21.80;96289.00;;;;8314099;28;20269;-64
2023/07/04 06:05:50;;;;;;;5.40;2.63;;;;;22.40;96296.00;;;;8311990;28;20244;-64
2023/07/04 06:09:56;;;;;;;5.10;2.40;;;;;22.80;96291.00;;;;8320971;28;20276;-67
2023/07/04 06:14:00;;;;;;;5.03;2.45;;;;;23.20;96302.00;;;;8321556;28;20726;-67
2023/07/04 06:18:04;;;;;;;3.45;2.75;;;;;23.50;96305.00;;;;8320574;28;20519;-64
2023/07/04 06:22:11;;;;;;;3.75;2.30;;;;;23.90;96306.00;;;;8319091;28;20259;-64
2023/07/04 06:26:15;;;;;;;6.30;2.60;;;;;23.90;96307.00;;;;8321547;28;20230;-64
2023/07/04 06:30:22;;;;;;;4.50;2.42;;;;;24.40;96301.00;;;;8302686;28;20856;-66
2023/07/04 06:34:25;;;;;;;3.03;2.47;;;;;24.80;96310.00;;;;8304034;28;20202;-64
2023/07/04 06:38:30;;;;;;;4.97;2.67;;;;;25.00;96306.00;;;;8305646;28;20328;-67
2023/07/04 06:42:34;;;;;;;3.15;2.72;;;;;25.30;96316.00;;;;8309174;28;20193;-63
2023/07/04 06:46:37;;;;;;;4.80;2.72;;;;;25.60;96312.00;;;;8310174;28;20236;-65
2023/07/04 06:50:45;;;;;;;6.45;2.83;;;;;24.80;96305.00;;;;8308043;28;20259;-64
2023/07/04 06:54:55;;;;;;;5.95;3.15;;;;;24.10;96317.00;;;;8304371;28;20255;-64
2023/07/04 06:58:59;;;;;;;7.45;3.15;;;;;23.80;96314.00;;;;8307029;28;21080;-67
2023/07/04 07:03:02;;;;;;;6.10;3.45;;;;;24.30;96320.00;;;;8303668;28;20229;-64
2023/07/04 07:07:09;;;;;;;5.43;3.40;;;;;24.80;96311.00;;;;8308824;28;20216;-64
2023/07/04 07:11:16;;;;;;;8.48;3.38;;;;;25.00;96322.00;;;;8307293;28;20252;-64
2023/07/04 07:15:20;;;;;;;7.63;3.97;;;;;25.30;96311.00;;;;8314483;28;20197;-65
2023/07/04 07:19:24;;;;;;;7.25;4.03;;;;;25.20;96323.00;;;;8313558;28;20292;-65
2023/07/04 07:23:30;;;;;;;12.43;5.10;;;;;24.60;96323.00;;;;8318554;28;20229;-64
2023/07/04 07:27:37;;;;;;;12.68;4.70;;;;;24.80;96325.00;;;;8306737;28;20193;-65
2023/07/04 07:31:40;;;;;;;9.48;4.40;;;;;25.40;96322.00;;;;8312835;28;20229;-65
2023/07/04 07:35:43;;;;;;;9.90;4.80;;;;;25.50;96327.00;;;;8314823;28;20221;-64
2023/07/04 07:39:46;;;;;;;8.82;4.70;;;;;25.90;96335.00;;;;8315279;28;20193;-65
2023/07/04 07:43:56;;;;;;;7.55;4.75;;;;;25.70;96332.00;;;;8317024;28;20405;-64
2023/07/04 07:47:59;;;;;;;13.52;5.38;;;;;25.40;96340.00;;;;8316292;28;20288;-64
2023/07/04 07:52:02;;;;;;;10.45;5.30;;;;;26.00;96327.00;;;;8316286;28;20201;-64
2023/07/04 07:56:14;;;;;;;10.82;5.88;;;;;27.00;96323.00;;;;8315214;28;20209;-64
2023/07/04 08:00:19;;;;;;;12.10;5.72;;;;;26.60;96329.00;;;;8317089;28;20607;-67
2023/07/04 08:04:22;;;;;;;11.32;5.63;;;;;26.00;96322.00;;;;8316721;28;20221;-65
2023/07/04 08:08:26;;;;;;;13.00;6.25;;;;;25.80;96326.00;;;;8315094;28;20225;-65
2023/07/04 08:12:35;;;;;;;13.50;5.53;;;;;25.70;96332.00;;;;8309837;28;20345;-64
2023/07/04 08:16:45;;;;;;;12.18;5.68;;;;;26.20;96320.00;;;;8314741;28;20268;-64
2023/07/04 08:20:56;;;;;;;14.18;5.47;;;;;25.90;96324.00;;;;8300427;28;20209;-63
2023/07/04 08:25:03;;;;;;;12.35;5.15;;;;;25.40;96324.00;;;;8312873;28;20706;-64
2023/07/04 08:29:08;;;;;;;14.35;5.90;;;;;25.70;96321.00;;;;8318216;28;20224;-65
2023/07/04 08:33:17;;;;;;;11.18;4.85;;;;;26.50;96325.00;;;;8308898;28;20316;-66
2023/07/04 08:37:23;;;;;;;10.00;5.45;;;;;27.10;96320.00;;;;8313568;28;20206;-66
2023/07/04 08:41:35;;;;;;;12.75;5.13;;;;;27.90;96322.00;;;;8309633;28;20236;-67
2023/07/04 08:45:42;;;;;;;9.25;4.68;;;;;29.00;96313.00;;;;8312643;28;20719;-65
2023/07/04 08:49:51;;;;;;;9.80;4.53;;;;;29.60;96315.00;;;;8312354;28;22027;-66
2023/07/04 08:54:01;;;;;;;14.15;4.82;;;;;29.90;96324.00;;;;8314363;28;20206;-67
2023/07/04 08:58:04;;;;;;;8.57;4.72;;;;;30.10;96344.00;;;;8309616;28;20296;-65
2023/07/04 09:02:43;;;;;;;11.68;4.72;;;;;28.70;96340.00;;;;8313459;28;20267;-67
2023/07/04 09:06:55;;;;;;;11.07;4.82;;;;;28.70;96347.00;;;;8319000;28;20295;-67
2023/07/04 09:11:04;;;;;;;12.13;5.57;;;;;29.30;96334.00;;;;8312549;28;20237;-67
2023/07/04 09:15:20;;;;;;;12.50;4.53;;;;;29.50;96347.00;;;;8314149;28;20281;-68
2023/07/04 09:19:23;;;;;;;12.98;4.43;;;;;29.10;96339.00;;;;8310606;28;20289;-65
2023/07/04 09:23:31;;;;;;;8.45;4.85;;;;;29.50;96341.00;;;;8310375;28;20197;-69
2023/07/04 09:27:37;;;;;;;11.50;4.25;;;;;29.40;96345.00;;;;8311429;28;20228;-65
2023/07/04 09:31:42;;;;;;;11.65;4.63;;;;;29.20;96347.00;;;;8309623;28;20208;-66
2023/07/04 09:35:48;;;;;;;11.02;4.93;;;;;28.60;96347.00;;;;8314489;28;20270;-67
2023/07/04 09:39:59;;;;;;;11.05;4.70;;;;;28.50;96333.00;;;;8312461;28;20205;-65
2023/07/04 09:44:14;;;;;;;10.23;5.53;;;;;29.10;96334.00;;;;8315919;28;20197;-65
2023/07/04 09:48:28;;;;;;;12.20;5.30;;;;;29.20;96347.00;;;;8320280;28;20252;-66
2023/07/04 09:52:31;;;;;;;10.02;5.03;;;;;28.40;96335.00;;;;8316274;28;21002;-65
2023/07/04 09:56:36;;;;;;;10.90;5.90;;;;;28.20;96341.00;;;;8313048;28;20217;-65
2023/07/04 10:00:39;;;;;;;9.77;5.35;;;;;28.40;96336.00;;;;8317334;28;20240;-69
2023/07/04 10:04:50;;;;;;;9.05;5.85;;;;;29.30;96329.00;;;;8312001;28;20240;-74
2023/07/04 10:08:56;;;;;;;13.27;6.82;;;;;30.20;96335.00;;;;8319862;28;20220;-66
2023/07/04 10:13:07;;;;;;;11.60;6.78;;;;;31.00;96326.00;;;;8319198;28;20225;-71
2023/07/04 10:17:17;;;;;;;10.88;6.28;;;;;31.60;96324.00;;;;8315450;28;20285;-66
2023/07/04 10:21:29;;;;;;;10.90;5.65;;;;;32.40;96328.00;;;;8320738;28;20198;-69
2023/07/04 10:25:35;;;;;;;14.90;5.70;;;;;32.20;96327.00;;;;8309653;28;20313;-66
2023/07/04 10:29:43;;;;;;;11.52;5.60;;;;;32.60;96316.00;;;;8309447;28;20596;-67
2023/07/04 10:33:52;;;;;;;9.48;5.55;;;;;32.90;96323.00;;;;8305341;28;20542;-66
2023/07/04 10:38:00;;;;;;;11.90;6.38;;;;;33.20;96325.00;;;;8299223;28;20197;-65
2023/07/04 10:42:14;;;;;;;11.90;5.53;;;;;33.60;96319.00;;;;8306743;28;20289;-64
2023/07/04 10:46:24;;;;;;;10.98;5.90;;;;;33.30;96322.00;;;;8302624;28;20238;-71
2023/07/04 10:50:29;;;;;;;19.17;8.93;;;;;31.80;96321.00;;;;8305763;28;20344;-65
2023/07/04 10:54:34;;;;;;;12.40;7.85;;;;;30.80;96308.00;;;;8305868;28;20228;-65
2023/07/04 10:58:42;;;;;;;13.45;7.82;;;;;31.60;96299.00;;;;8288324;28;20305;-64
2023/07/04 11:02:51;;;;;;;12.82;7.72;;;;;32.10;96298.00;;;;8293286;28;20626;-65
2023/07/04 11:06:59;;;;;;;10.25;5.97;;;;;32.50;96300.00;;;;8302292;28;20894;-67
2023/07/04 11:11:09;;;;;;;10.27;6.30;;;;;31.50;96284.00;;;;8302860;28;20312;-69
2023/07/04 11:15:24;;;;;;;15.10;6.82;;;;;31.40;96297.00;;;;8307610;28;20213;-66
2023/07/04 11:19:34;;;;;;;12.88;7.18;;;;;32.10;96282.00;;;;8315861;28;20205;-68
2023/07/04 11:23:48;;;;;;;16.77;7.35;;;;;32.30;96291.00;;;;8305767;28;20563;-67
2023/07/04 11:28:15;;;;;;;11.07;6.47;;;;;31.80;96294.00;;;;8306036;28;20895;-67
2023/07/04 11:32:25;;;;;;;12.15;7.75;;;;;31.00;96298.00;;;;8311095;28;20203;-65
2023/07/04 11:36:35;;;;;;;12.23;6.75;;;;;30.50;96302.00;;;;8318424;28;20254;-64
2023/07/04 11:40:45;;;;;;;12.02;7.90;;;;;30.10;96295.00;;;;8316274;28;20201;-65
2023/07/04 11:44:57;;;;;;;10.40;6.50;;;;;30.60;96291.00;;;;8309115;28;20308;-65
2023/07/04 11:49:02;;;;;;;15.07;8.05;;;;;31.00;96280.00;;;;8307385;28;20197;-66
2023/07/04 11:53:12;;;;;;;12.15;6.80;;;;;31.40;96289.00;;;;8309518;28;20718;-66
2023/07/04 11:57:21;;;;;;;11.95;7.50;;;;;31.60;96286.00;;;;8313956;28;20202;-66
2023/07/04 12:01:24;;;;;;;15.70;7.43;;;;;32.80;96283.00;;;;8305486;28;20289;-65
2023/07/04 12:05:34;;;;;;;10.68;7.20;;;;;32.50;96277.00;;;;8307243;28;20225;-67
2023/07/04 12:09:45;;;;;;;14.90;6.53;;;;;33.10;96280.00;;;;8308885;28;20201;-65
2023/07/04 12:13:50;;;;;;;10.45;6.72;;;;;33.90;96280.00;;;;8309855;28;20264;-67
2023/07/04 12:17:54;;;;;;;11.10;6.88;;;;;34.00;96278.00;;;;8310383;28;20189;-67
2023/07/04 12:21:59;;;;;;;9.40;7.15;;;;;33.90;96259.00;;;;8307242;28;20198;-65
2023/07/04 12:26:06;;;;;;;12.57;7.07;;;;;34.10;96268.00;;;;8312814;28;20225;-67
2023/07/04 12:30:12;;;;;;;11.30;7.20;;;;;33.20;96259.00;;;;8313068;28;20202;-67
2023/07/04 12:34:16;;;;;;;8.20;6.25;;;;;34.20;96261.00;;;;8310500;28;20735;-64
2023/07/04 12:38:29;;;;;;;10.52;6.53;;;;;34.90;96242.00;;;;8313299;28;20259;-67
2023/07/04 12:42:34;;;;;;;9.35;5.43;;;;;35.00;96252.00;;;;8311072;28;20224;-65
2023/07/04 12:46:42;;;;;;;10.73;6.10;;;;;35.00;96239.00;;;;8317226;28;20237;-66
2023/07/04 12:50:53;;;;;;;9.15;5.57;;;;;34.80;96237.00;;;;8308106;28;20212;-66
2023/07/04 12:54:59;;;;;;;12.10;6.57;;;;;33.40;96237.00;;;;8312651;28;20216;-65
2023/07/04 12:59:06;;;;;;;11.93;6.60;;;;;32.70;96241.00;;;;8307884;28;20284;-65
2023/07/04 13:03:12;;;;;;;13.85;6.72;;;;;32.50;96243.00;;;;8312166;28;20225;-67
2023/07/04 13:07:21;;;;;;;11.20;6.65;;;;;32.60;96233.00;;;;8312528;28;20316;-66
2023/07/04 13:11:27;;;;;;;10.18;6.35;;;;;33.30;96219.00;;;;8313885;28;20206;-66
2023/07/04 13:15:38;;;;;;;10.90;7.15;;;;;33.60;96205.00;;;;8313979;28;20713;-66
2023/07/04 13:19:43;;;;;;;10.45;7.05;;;;;34.30;96214.00;;;;8310459;28;20288;-66
2023/07/04 13:23:47;;;;;;;12.23;8.00;;;;;34.50;96207.00;;;;8318198;28;20197;-64
2023/07/04 13:28:22;;;;;;;14.40;8.23;;;;;32.90;96208.00;;;;8313964;28;20236;-69
2023/07/04 13:32:36;;;;;;;17.40;7.63;;;;;32.00;96205.00;;;;8313006;28;20206;-67
2023/07/04 13:36:48;;;;;;;13.18;6.75;;;;;33.30;96211.00;;;;8309948;28;20648;-66
2023/07/04 13:40:54;;;;;;;11.15;7.53;;;;;33.80;96210.00;;;;8308842;28;20293;-66
2023/07/04 13:45:00;;;;;;;11.23;7.28;;;;;34.10;96214.00;;;;8314241;28;20796;-66
2023/07/04 13:49:17;;;;;;;11.23;7.47;;;;;34.90;96205.00;;;;8310151;28;20229;-66
2023/07/04 13:53:21;;;;;;;9.88;7.18;;;;;35.00;96201.00;;;;8314165;28;20595;-66
2023/07/04 13:57:24;;;;;;;15.70;7.30;;;;;35.40;96201.00;;;;8313319;28;20201;-66
2023/07/04 14:01:27;;;;;;;10.93;7.20;;;;;35.80;96189.00;;;;8312542;28;20209;-67
2023/07/04 14:05:39;;;;;;;15.90;7.68;;;;;36.00;96186.00;;;;8308237;28;20208;-67
2023/07/04 14:09:47;;;;;;;14.18;7.55;;;;;35.60;96174.00;;;;8308451;28;20236;-66
2023/07/04 14:13:52;;;;;;;10.38;7.10;;;;;35.40;96185.00;;;;8305723;28;20682;-66
2023/07/04 14:18:03;;;;;;;10.63;7.07;;;;;35.10;96178.00;;;;8308690;28;20250;-66
2023/07/04 14:22:12;;;;;;;10.02;7.75;;;;;34.60;96170.00;;;;8308071;28;20240;-66
2023/07/04 14:26:20;;;;;;;14.63;7.03;;;;;33.70;96184.00;;;;8308635;28;20233;-66
2023/07/04 14:30:30;;;;;;;11.50;7.20;;;;;33.70;96180.00;;;;8314505;28;20383;-64
2023/07/04 14:34:35;;;;;;;14.85;7.10;;;;;34.10;96178.00;;;;8318904;28;20205;-68
2023/07/04 14:38:41;;;;;;;12.95;7.32;;;;;34.60;96163.00;;;;8321281;28;20240;-67
2023/07/04 14:42:46;;;;;;;14.32;7.38;;;;;35.50;96163.00;;;;8323421;28;20240;-66
2023/07/04 14:46:54;;;;;;;9.50;6.90;;;;;36.00;96161.00;;;;8317787;28;20317;-65
2023/07/04 14:51:04;;;;;;;7.82;6.43;;;;;35.50;96151.00;;;;8319628;28;20332;-65
2023/07/04 14:55:15;;;;;;;12.13;6.20;;;;;34.50;96156.00;;;;8315973;28;20300;-66
2023/07/04 14:59:20;;;;;;;11.05;6.75;;;;;33.80;96158.00;;;;8318794;28;20259;-66
2023/07/04 15:03:24;;;;;;;10.15;6.18;;;;;34.00;96155.00;;;;8320667;28;20332;-65
2023/07/04 15:07:27;;;;;;;10.00;6.30;;;;;34.60;96149.00;;;;8319592;28;20901;-65
2023/07/04 15:11:32;;;;;;;9.52;5.82;;;;;34.70;96150.00;;;;8320756;28;20217;-66
2023/07/04 15:15:35;;;;;;;8.48;5.93;;;;;34.40;96146.00;;;;8322090;28;20284;-66
2023/07/04 15:19:39;;;;;;;10.55;6.25;;;;;34.70;96144.00;;;;8320185;28;20193;-65
2023/07/04 15:23:43;;;;;;;9.05;5.93;;;;;34.40;96138.00;;;;8318474;28;20206;-66
2023/07/04 15:27:47;;;;;;;11.40;6.15;;;;;34.10;96134.00;;;;8318377;28;20253;-65
2023/07/04 15:31:52;;;;;;;9.52;6.00;;;;;34.40;96131.00;;;;8320736;28;20673;-65
2023/07/04 15:35:57;;;;;;;8.80;5.10;;;;;34.20;96139.00;;;;8312452;28;20632;-66
2023/07/04 15:40:04;;;;;;;8.00;5.35;;;;;34.40;96137.00;;;;8314199;28;20197;-66
2023/07/04 15:44:11;;;;;;;8.30;5.38;;;;;34.70;96123.00;;;;8321489;28;20285;-65
2023/07/04 15:48:15;;;;;;;8.68;4.93;;;;;34.70;96125.00;;;;8320040;28;20311;-65
2023/07/04 15:52:19;;;;;;;11.15;5.63;;;;;34.20;96130.00;;;;8320440;28;20259;-66
2023/07/04 15:56:23;;;;;;;8.65;5.55;;;;;33.70;96125.00;;;;8317385;28;20201;-66
2023/07/04 16:00:28;;;;;;;7.85;5.55;;;;;33.80;96135.00;;;;8300350;28;20284;-66
2023/07/04 16:04:35;;;;;;;7.70;5.45;;;;;33.80;96135.00;;;;8318956;28;20257;-66
2023/07/04 16:08:41;;;;;;;8.43;5.63;;;;;33.70;96132.00;;;;8317482;28;20732;-66
2023/07/04 16:12:44;;;;;;;9.23;6.72;;;;;33.30;96127.00;;;;8319378;28;20224;-67
2023/07/04 16:16:48;;;;;;;8.52;6.32;;;;;32.50;96128.00;;;;8317913;28;20293;-64
2023/07/04 16:20:54;;;;;;;10.50;5.82;;;;;32.80;96120.00;;;;8311419;28;20197;-63
2023/07/04 16:24:58;;;;;;;10.27;6.55;;;;;33.70;96119.00;;;;8318451;28;20194;-64
2023/07/04 16:29:01;;;;;;;11.90;5.95;;;;;33.80;96120.00;;;;8317510;28;20233;-65
2023/07/04 16:33:07;;;;;;;8.60;5.57;;;;;33.60;96117.00;;;;8318141;28;20224;-65
2023/07/04 16:37:12;;;;;;;6.75;5.63;;;;;33.30;96122.00;;;;8317088;28;20201;-65
2023/07/04 16:41:20;;;;;;;6.40;5.72;;;;;32.60;96119.00;;;;8319051;28;20292;-65
2023/07/04 16:45:23;;;;;;;8.57;5.63;;;;;33.10;96118.00;;;;8319720;28;20201;-66
2023/07/04 16:49:33;;;;;;;10.18;5.78;;;;;33.40;96121.00;;;;8318702;28;20647;-65
2023/07/04 16:53:38;;;;;;;11.63;6.10;;;;;33.30;96129.00;;;;8310754;28;20204;-65
2023/07/04 16:57:41;;;;;;;10.68;6.68;;;;;33.00;96122.00;;;;8319445;28;20203;-65
2023/07/04 17:01:44;;;;;;;9.77;6.15;;;;;32.50;96126.00;;;;8320982;28;20264;-66
2023/07/04 17:05:54;;;;;;;9.00;5.50;;;;;32.40;96125.00;;;;8319194;28;20201;-65
2023/07/04 17:09:58;;;;;;;8.85;5.55;;;;;32.00;96126.00;;;;8318540;28;20248;-65
2023/07/04 17:14:02;;;;;;;8.23;6.03;;;;;31.80;96122.00;;;;8317508;28;20281;-65
2023/07/04 17:18:10;;;;;;;10.10;6.05;;;;;32.30;96120.00;;;;8317438;28;20280;-64
2023/07/04 17:22:20;;;;;;;9.45;5.68;;;;;32.90;96121.00;;;;8318148;28;20217;-65
2023/07/04 17:26:31;;;;;;;8.60;5.85;;;;;33.40;96123.00;;;;8320236;28;20242;-64
2023/07/04 17:30:34;;;;;;;6.78;5.72;;;;;34.10;96119.00;;;;8318071;28;20261;-66
2023/07/04 17:34:38;;;;;;;8.98;5.30;;;;;34.20;96132.00;;;;8314965;28;20579;-65
2023/07/04 17:38:43;;;;;;;10.85;6.13;;;;;33.60;96129.00;;;;8313289;28;20209;-65
2023/07/04 17:42:48;;;;;;;7.45;5.28;;;;;33.00;96138.00;;;;8320031;28;20198;-64
2023/07/04 17:46:53;;;;;;;7.78;5.70;;;;;32.30;96138.00;;;;8312133;28;20211;-64
2023/07/04 17:51:02;;;;;;;9.35;6.18;;;;;31.80;96134.00;;;;8315308;28;20213;-65
2023/07/04 17:55:10;;;;;;;8.38;6.00;;;;;31.20;96137.00;;;;8318186;28;20201;-64
2023/07/04 17:59:15;;;;;;;9.27;5.60;;;;;30.70;96148.00;;;;8315460;28;20210;-65
2023/07/04 18:03:18;;;;;;;9.45;5.82;;;;;30.20;96146.00;;;;8315815;28;20724;-64
2023/07/04 18:07:23;;;;;;;7.32;5.38;;;;;29.90;96143.00;;;;8322718;28;20335;-64
2023/07/04 18:11:29;;;;;;;10.63;6.10;;;;;29.70;96148.00;;;;8312692;28;20194;-65
2023/07/04 18:15:35;;;;;;;11.55;6.25;;;;;29.50;96144.00;;;;8318317;28;20915;-65
2023/07/04 18:19:39;;;;;;;12.60;6.65;;;;;29.30;96144.00;;;;8317245;28;20209;-65
2023/07/04 18:23:47;;;;;;;12.27;6.35;;;;;29.20;96141.00;;;;8321426;28;20706;-65
2023/07/04 18:28:11;;;;;;;10.02;6.63;;;;;28.90;96144.00;;;;8319250;28;20337;-64
2023/07/04 18:32:16;;;;;;;9.65;6.75;;;;;28.70;96146.00;;;;8320933;28;20224;-64
2023/07/04 18:36:24;;;;;;;9.35;6.32;;;;;28.40;96147.00;;;;8318857;28;20604;-66
2023/07/04 18:40:30;;;;;;;12.70;7.40;;;;;28.10;96152.00;;;;8321173;28;20209;-64
2023/07/04 18:44:34;;;;;;;9.52;6.47;;;;;28.00;96150.00;;;;8319455;28;20292;-65
2023/07/04 18:48:38;;;;;;;10.13;6.72;;;;;27.90;96151.00;;;;8318390;28;20261;-65
2023/07/04 18:52:41;;;;;;;11.27;6.72;;;;;27.70;96153.00;;;;8305945;28;20992;-65
2023/07/04 18:56:45;;;;;;;13.65;6.97;;;;;27.30;96155.00;;;;8318799;28;20205;-65
2023/07/04 19:00:52;;;;;;;9.90;7.13;;;;;27.00;96164.00;;;;8321158;28;20501;-65
2023/07/04 19:04:56;;;;;;;13.73;6.90;;;;;26.60;96165.00;;;;8322442;28;20916;-65
2023/07/04 19:09:00;;;;;;;12.15;7.55;;;;;26.30;96160.00;;;;8316746;28;20347;-65
2023/07/04 19:13:05;;;;;;;12.43;6.55;;;;;25.80;96172.00;;;;8308566;28;20297;-66
2023/07/04 19:17:13;;;;;;;10.73;6.80;;;;;25.30;96171.00;;;;8316337;28;20224;-66
2023/07/04 19:21:17;;;;;;;9.80;6.65;;;;;24.90;96177.00;;;;8318590;28;20783;-65
2023/07/04 19:25:20;;;;;;;15.90;7.80;;;;;24.50;96181.00;;;;8314650;28;20212;-65
2023/07/04 19:29:24;;;;;;;11.30;6.97;;;;;23.90;96181.00;;;;8316285;28;20837;-65
2023/07/04 19:33:32;;;;;;;11.57;6.68;;;;;23.50;96179.00;;;;8311204;28;20237;-65
2023/07/04 19:37:39;;;;;;;16.30;7.47;;;;;23.00;96183.00;;;;8297135;28;20576;-65
2023/07/04 19:41:42;;;;;;;11.82;7.20;;;;;22.70;96193.00;;;;8309963;28;20205;-65
2023/07/04 19:45:53;;;;;;;17.45;7.47;;;;;22.30;96182.00;;;;8293092;28;20216;-64
2023/07/04 19:49:58;;;;;;;15.68;7.65;;;;;22.00;96185.00;;;;8308476;28;20287;-67
2023/07/04 19:54:03;;;;;;;15.20;7.50;;;;;21.80;96180.00;;;;8309649;28;20288;-64
2023/07/04 19:58:10;;;;;;;11.80;7.40;;;;;21.60;96181.00;;;;8298527;28;20285;-63
2023/07/04 20:02:13;;;;;;;11.55;7.30;;;;;21.30;96180.00;;;;8299707;28;20305;-64
2023/07/04 20:06:27;;;;;;;14.45;7.43;;;;;21.10;96168.00;;;;8305137;28;20288;-65
2023/07/04 20:10:31;;;;;;;14.35;7.75;;;;;20.80;96170.00;;;;8308974;28;20233;-65
2023/07/04 20:14:35;;;;;;;15.82;8.38;;;;;20.60;96174.00;;;;8312838;28;20200;-65
2023/07/04 20:18:41;;;;;;;12.45;7.65;;;;;20.50;96170.00;;;;8311672;28;20501;-66
2023/07/04 20:22:46;;;;;;;15.23;8.02;;;;;20.50;96169.00;;;;8309084;28;20201;-65
2023/07/04 20:26:51;;;;;;;15.05;8.00;;;;;20.50;96153.00;;;;8310959;28;20296;-68